Castleconnell, Ireland
Current Conditions -  °F | °C
As of 3:30 PM on Wednesday 26 Nov 2014 (Local Time) from EINN Reporting Station
Broken Clouds Broken Clouds  
Wind Chill: 41°   Ceiling: 3500
Heat Index: 45°   Visibility: 6mi
Dew Point: 41°   Wind: 6mph
Humidity: 87%   Direction: 100°E
Pressure: 29.85"   Gusts: NA
Location:  52.71°N, 8.5°W
Report Text: EINN 261530Z 10005KT 9999 FEW025 BKN035 07/05 Q1011 NOSIG
Loading
Personal Weather Stations






























Interactive Weather Map New forecast layout! Learn more

10-Day Weather Forecast

Advertisements
Track Severe Weather on mobile